sensor_id;sensor_type;location;lat;lon;timestamp;temperature;humidity
13596;DHT22;6868;52.544;13.416;2023-05-08T00:02:06;8.50;99.90
13596;DHT22;6868;52.544;13.416;2023-05-08T00:04:33;8.50;99.90
13596;DHT22;6868;52.544;13.416;2023-05-08T00:07:05;8.40;99.90
13596;DHT22;6868;52.544;13.416;2023-05-08T00:09:37;8.40;99.90
13596;DHT22;6868;52.544;13.416;2023-05-08T00:12:18;8.50;99.90
13596;DHT22;6868;52.544;13.416;2023-05-08T00:17:26;8.30;99.90
13596;DHT22;6868;52.544;13.416;2023-05-08T00:20:02;8.30;99.90
13596;DHT22;6868;52.544;13.416;2023-05-08T00:25:39;8.20;99.90
13596;DHT22;6868;52.544;13.416;2023-05-08T00:28:11;8.20;99.90
13596;DHT22;6868;52.544;13.416;2023-05-08T00:30:50;8.10;99.90
13596;DHT22;6868;52.544;13.416;2023-05-08T00:33:22;8.10;99.90
13596;DHT22;6868;52.544;13.416;2023-05-08T00:36:00;8.10;99.90
13596;DHT22;6868;52.544;13.416;2023-05-08T00:38:30;8.10;99.90
13596;DHT22;6868;52.544;13.416;2023-05-08T00:41:03;8.00;99.90
13596;DHT22;6868;52.544;13.416;2023-05-08T00:43:44;8.00;99.90
13596;DHT22;6868;52.544;13.416;2023-05-08T00:48:45;7.90;99.90
13596;DHT22;6868;52.544;13.416;2023-05-08T00:51:18;7.90;99.90
13596;DHT22;6868;52.544;13.416;2023-05-08T00:54:12;7.90;99.90
13596;DHT22;6868;52.544;13.416;2023-05-08T00:56:48;7.90;99.90
13596;DHT22;6868;52.544;13.416;2023-05-08T00:59:19;7.90;99.90
13596;DHT22;6868;52.544;13.416;2023-05-08T01:02:02;7.80;99.90
13596;DHT22;6868;52.544;13.416;2023-05-08T01:04:31;7.80;99.90
13596;DHT22;6868;52.544;13.416;2023-05-08T01:07:03;7.80;99.90
13596;DHT22;6868;52.544;13.416;2023-05-08T01:09:47;7.80;99.90
13596;DHT22;6868;52.544;13.416;2023-05-08T01:12:19;7.70;99.90
13596;DHT22;6868;52.544;13.416;2023-05-08T01:15:03;7.70;99.90
13596;DHT22;6868;52.544;13.416;2023-05-08T01:17:37;7.70;99.90
13596;DHT22;6868;52.544;13.416;2023-05-08T01:20:12;7.80;99.90
13596;DHT22;6868;52.544;13.416;2023-05-08T01:23:04;7.60;99.90
13596;DHT22;6868;52.544;13.416;2023-05-08T01:25:48;7.60;99.90
13596;DHT22;6868;52.544;13.416;2023-05-08T01:28:42;7.60;99.90
13596;DHT22;6868;52.544;13.416;2023-05-08T01:31:23;7.60;99.90
13596;DHT22;6868;52.544;13.416;2023-05-08T01:34:17;7.60;99.90
13596;DHT22;6868;52.544;13.416;2023-05-08T01:36:57;7.50;99.90
13596;DHT22;6868;52.544;13.416;2023-05-08T01:39:40;7.50;99.90
13596;DHT22;6868;52.544;13.416;2023-05-08T01:42:32;7.50;99.90
13596;DHT22;6868;52.544;13.416;2023-05-08T01:45:15;7.50;99.90
13596;DHT22;6868;52.544;13.416;2023-05-08T01:51:25;7.40;99.90
13596;DHT22;6868;52.544;13.416;2023-05-08T01:54:18;7.40;99.90
13596;DHT22;6868;52.544;13.416;2023-05-08T01:57:02;7.40;99.90
13596;DHT22;6868;52.544;13.416;2023-05-08T01:59:36;7.30;99.90
13596;DHT22;6868;52.544;13.416;2023-05-08T02:02:15;7.30;99.90
13596;DHT22;6868;52.544;13.416;2023-05-08T02:04:48;7.30;99.90
13596;DHT22;6868;52.544;13.416;2023-05-08T02:07:24;7.20;99.90
13596;DHT22;6868;52.544;13.416;2023-05-08T02:10:00;7.20;99.90
13596;DHT22;6868;52.544;13.416;2023-05-08T02:12:43;7.20;99.90
13596;DHT22;6868;52.544;13.416;2023-05-08T02:15:31;7.10;99.90
13596;DHT22;6868;52.544;13.416;2023-05-08T02:18:31;6.90;99.90
13596;DHT22;6868;52.544;13.416;2023-05-08T02:21:24;7.10;99.90
13596;DHT22;6868;52.544;13.416;2023-05-08T02:24:15;7.00;99.90
13596;DHT22;6868;52.544;13.416;2023-05-08T02:26:52;7.00;99.90
13596;DHT22;6868;52.544;13.416;2023-05-08T02:29:45;7.00;99.90
13596;DHT22;6868;52.544;13.416;2023-05-08T02:32:44;7.00;99.90
13596;DHT22;6868;52.544;13.416;2023-05-08T02:35:25;6.90;99.90
13596;DHT22;6868;52.544;13.416;2023-05-08T02:38:09;6.90;99.90
13596;DHT22;6868;52.544;13.416;2023-05-08T02:40:49;6.90;99.90
13596;DHT22;6868;52.544;13.416;2023-05-08T02:43:36;6.80;99.90
13596;DHT22;6868;52.544;13.416;2023-05-08T02:46:14;6.80;99.90
13596;DHT22;6868;52.544;13.416;2023-05-08T02:48:54;6.80;99.90
13596;DHT22;6868;52.544;13.416;2023-05-08T02:51:39;6.80;99.90
13596;DHT22;6868;52.544;13.416;2023-05-08T02:54:29;6.80;99.90
13596;DHT22;6868;52.544;13.416;2023-05-08T02:57:17;6.80;99.90
13596;DHT22;6868;52.544;13.416;2023-05-08T03:00:11;6.80;99.90
13596;DHT22;6868;52.544;13.416;2023-05-08T03:02:40;6.80;99.90
13596;DHT22;6868;52.544;13.416;2023-05-08T03:05:10;6.80;99.90
13596;DHT22;6868;52.544;13.416;2023-05-08T03:07:40;6.80;99.90
13596;DHT22;6868;52.544;13.416;2023-05-08T03:10:09;6.80;99.90
13596;DHT22;6868;52.544;13.416;2023-05-08T03:12:39;6.80;99.90
13596;DHT22;6868;52.544;13.416;2023-05-08T03:15:07;6.80;99.90
13596;DHT22;6868;52.544;13.416;2023-05-08T03:17:36;6.80;99.90
13596;DHT22;6868;52.544;13.416;2023-05-08T03:22:31;6.80;99.90
13596;DHT22;6868;52.544;13.416;2023-05-08T03:24:58;6.80;99.90
13596;DHT22;6868;52.544;13.416;2023-05-08T03:27:25;6.80;99.90
13596;DHT22;6868;52.544;13.416;2023-05-08T03:29:55;6.80;99.90
13596;DHT22;6868;52.544;13.416;2023-05-08T03:32:24;6.70;99.90
13596;DHT22;6868;52.544;13.416;2023-05-08T03:34:51;6.70;99.90
13596;DHT22;6868;52.544;13.416;2023-05-08T03:37:19;6.70;99.90
13596;DHT22;6868;52.544;13.416;2023-05-08T03:39:46;6.70;99.90
13596;DHT22;6868;52.544;13.416;2023-05-08T03:42:13;6.70;99.90
13596;DHT22;6868;52.544;13.416;2023-05-08T03:44:46;6.70;99.90
13596;DHT22;6868;52.544;13.416;2023-05-08T03:47:16;6.70;99.90
13596;DHT22;6868;52.544;13.416;2023-05-08T03:49:43;6.70;99.90
13596;DHT22;6868;52.544;13.416;2023-05-08T03:52:10;6.70;99.90
13596;DHT22;6868;52.544;13.416;2023-05-08T03:54:37;6.70;99.90
13596;DHT22;6868;52.544;13.416;2023-05-08T03:57:04;6.70;99.90
13596;DHT22;6868;52.544;13.416;2023-05-08T03:59:33;6.70;99.90
13596;DHT22;6868;52.544;13.416;2023-05-08T04:02:06;6.70;99.90
13596;DHT22;6868;52.544;13.416;2023-05-08T04:04:38;6.70;99.90
13596;DHT22;6868;52.544;13.416;2023-05-08T04:07:06;6.70;99.90
13596;DHT22;6868;52.544;13.416;2023-05-08T04:12:01;6.80;99.90
13596;DHT22;6868;52.544;13.416;2023-05-08T04:14:30;6.80;99.90
13596;DHT22;6868;52.544;13.416;2023-05-08T04:16:59;6.80;99.90
13596;DHT22;6868;52.544;13.416;2023-05-08T04:19:27;6.80;99.90
13596;DHT22;6868;52.544;13.416;2023-05-08T04:21:57;6.80;99.90
13596;DHT22;6868;52.544;13.416;2023-05-08T04:24:24;6.90;99.90
13596;DHT22;6868;52.544;13.416;2023-05-08T04:26:53;6.90;99.90
13596;DHT22;6868;52.544;13.416;2023-05-08T04:29:20;6.90;99.90
13596;DHT22;6868;52.544;13.416;2023-05-08T04:31:47;6.90;99.90
13596;DHT22;6868;52.544;13.416;2023-05-08T04:34:15;6.90;99.90
13596;DHT22;6868;52.544;13.416;2023-05-08T04:36:42;7.00;99.90
13596;DHT22;6868;52.544;13.416;2023-05-08T04:39:10;7.00;99.90
13596;DHT22;6868;52.544;13.416;2023-05-08T04:41:37;7.00;99.90
13596;DHT22;6868;52.544;13.416;2023-05-08T04:44:04;7.00;99.90
13596;DHT22;6868;52.544;13.416;2023-05-08T04:46:31;7.10;99.90
13596;DHT22;6868;52.544;13.416;2023-05-08T04:48:57;7.10;99.90
13596;DHT22;6868;52.544;13.416;2023-05-08T04:51:24;7.30;99.90
13596;DHT22;6868;52.544;13.416;2023-05-08T04:53:51;7.40;99.90
13596;DHT22;6868;52.544;13.416;2023-05-08T04:56:20;7.40;99.90
13596;DHT22;6868;52.544;13.416;2023-05-08T04:58:48;7.50;99.90
13596;DHT22;6868;52.544;13.416;2023-05-08T05:01:18;7.70;99.90
13596;DHT22;6868;52.544;13.416;2023-05-08T05:03:45;8.20;99.90
13596;DHT22;6868;52.544;13.416;2023-05-08T05:06:12;8.90;99.90
13596;DHT22;6868;52.544;13.416;2023-05-08T05:08:39;9.50;99.90
13596;DHT22;6868;52.544;13.416;2023-05-08T05:11:06;9.60;99.90
13596;DHT22;6868;52.544;13.416;2023-05-08T05:13:34;9.50;99.90
13596;DHT22;6868;52.544;13.416;2023-05-08T05:16:01;9.60;99.90
13596;DHT22;6868;52.544;13.416;2023-05-08T05:18:28;9.30;99.90
13596;DHT22;6868;52.544;13.416;2023-05-08T05:20:56;9.20;99.90
13596;DHT22;6868;52.544;13.416;2023-05-08T05:23:23;9.30;99.90
13596;DHT22;6868;52.544;13.416;2023-05-08T05:25:50;9.40;99.90
13596;DHT22;6868;52.544;13.416;2023-05-08T05:28:17;9.50;99.90
13596;DHT22;6868;52.544;13.416;2023-05-08T05:30:46;9.40;99.90
13596;DHT22;6868;52.544;13.416;2023-05-08T05:33:13;9.40;99.90
13596;DHT22;6868;52.544;13.416;2023-05-08T05:35:40;9.40;99.90
13596;DHT22;6868;52.544;13.416;2023-05-08T05:38:07;9.80;99.90
13596;DHT22;6868;52.544;13.416;2023-05-08T05:40:35;9.80;99.90
13596;DHT22;6868;52.544;13.416;2023-05-08T05:43:01;9.70;99.90
13596;DHT22;6868;52.544;13.416;2023-05-08T05:45:28;9.80;99.90
13596;DHT22;6868;52.544;13.416;2023-05-08T05:47:57;10.10;99.90
13596;DHT22;6868;52.544;13.416;2023-05-08T05:50:32;10.00;99.90
13596;DHT22;6868;52.544;13.416;2023-05-08T05:52:59;9.80;99.90
13596;DHT22;6868;52.544;13.416;2023-05-08T05:55:26;10.00;99.90
13596;DHT22;6868;52.544;13.416;2023-05-08T05:57:53;10.40;99.90
13596;DHT22;6868;52.544;13.416;2023-05-08T06:00:20;10.60;99.90
13596;DHT22;6868;52.544;13.416;2023-05-08T06:02:47;11.00;99.90
